sensor_id;sensor_type;location;lat;lon;timestamp;pressure;altitude;pressure_sealevel;temperature;humidity
53932;BME280;39844;52.496;13.482;2023-04-26T00:00:20;101133.66;;;6.09;65.94
53932;BME280;39844;52.496;13.482;2023-04-26T00:02:45;101144.00;;;6.06;65.71
53932;BME280;39844;52.496;13.482;2023-04-26T00:05:10;101143.94;;;6.03;65.68
53932;BME280;39844;52.496;13.482;2023-04-26T00:07:36;101147.34;;;5.99;65.15
53932;BME280;39844;52.496;13.482;2023-04-26T00:10:01;101144.63;;;5.95;65.12
53932;BME280;39844;52.496;13.482;2023-04-26T00:12:26;101145.47;;;5.94;67.04
53932;BME280;39844;52.496;13.482;2023-04-26T00:14:52;101151.50;;;5.91;65.82
53932;BME280;39844;52.496;13.482;2023-04-26T00:17:17;101144.47;;;5.87;66.12
53932;BME280;39844;52.496;13.482;2023-04-26T00:19:42;101151.41;;;5.87;67.12
53932;BME280;39844;52.496;13.482;2023-04-26T00:22:07;101148.69;;;5.84;67.04
53932;BME280;39844;52.496;13.482;2023-04-26T00:24:33;101143.38;;;5.79;67.31
53932;BME280;39844;52.496;13.482;2023-04-26T00:26:58;101146.81;;;5.78;68.00
53932;BME280;39844;52.496;13.482;2023-04-26T00:29:24;101145.84;;;5.73;67.74
53932;BME280;39844;52.496;13.482;2023-04-26T00:31:49;101142.34;;;5.71;67.49
53932;BME280;39844;52.496;13.482;2023-04-26T00:34:14;101141.44;;;5.69;68.92
53932;BME280;39844;52.496;13.482;2023-04-26T00:36:40;101151.78;;;5.66;67.76
53932;BME280;39844;52.496;13.482;2023-04-26T00:39:05;101148.19;;;5.61;67.56
53932;BME280;39844;52.496;13.482;2023-04-26T00:41:30;101145.56;;;5.61;68.33
53932;BME280;39844;52.496;13.482;2023-04-26T00:43:57;101145.50;;;5.58;67.83
53932;BME280;39844;52.496;13.482;2023-04-26T00:46:22;101151.53;;;5.55;69.85
53932;BME280;39844;52.496;13.482;2023-04-26T00:48:47;101150.59;;;5.53;69.62
53932;BME280;39844;52.496;13.482;2023-04-26T00:51:13;101153.13;;;5.49;69.41
53932;BME280;39844;52.496;13.482;2023-04-26T00:53:40;101151.25;;;5.45;69.73
53932;BME280;39844;52.496;13.482;2023-04-26T00:56:08;101159.84;;;5.41;69.91
53932;BME280;39844;52.496;13.482;2023-04-26T00:58:33;101155.47;;;5.38;69.21
53932;BME280;39844;52.496;13.482;2023-04-26T01:00:59;101155.41;;;5.37;70.43
53932;BME280;39844;52.496;13.482;2023-04-26T01:03:24;101158.88;;;5.36;70.18
53932;BME280;39844;52.496;13.482;2023-04-26T01:05:49;101152.75;;;5.34;70.70
53932;BME280;39844;52.496;13.482;2023-04-26T01:08:15;101162.19;;;5.30;70.33
53932;BME280;39844;52.496;13.482;2023-04-26T01:10:40;101157.88;;;5.31;71.05
53932;BME280;39844;52.496;13.482;2023-04-26T01:13:05;101160.41;;;5.28;70.23
53932;BME280;39844;52.496;13.482;2023-04-26T01:15:31;101165.59;;;5.28;70.88
53932;BME280;39844;52.496;13.482;2023-04-26T01:17:56;101157.72;;;5.25;70.97
53932;BME280;39844;52.496;13.482;2023-04-26T01:20:22;101159.41;;;5.23;70.37
53932;BME280;39844;52.496;13.482;2023-04-26T01:22:47;101163.78;;;5.24;70.83
53932;BME280;39844;52.496;13.482;2023-04-26T01:25:13;101167.19;;;5.21;71.23
53932;BME280;39844;52.496;13.482;2023-04-26T01:27:40;101164.69;;;5.26;72.55
53932;BME280;39844;52.496;13.482;2023-04-26T01:30:05;101166.38;;;5.24;70.77
53932;BME280;39844;52.496;13.482;2023-04-26T01:32:31;101163.72;;;5.21;71.53
53932;BME280;39844;52.496;13.482;2023-04-26T01:34:56;101166.31;;;5.21;71.43
53932;BME280;39844;52.496;13.482;2023-04-26T01:37:21;101169.75;;;5.20;71.27
53932;BME280;39844;52.496;13.482;2023-04-26T01:39:47;101176.66;;;5.19;71.91
53932;BME280;39844;52.496;13.482;2023-04-26T01:42:12;101186.13;;;5.16;71.46
53932;BME280;39844;52.496;13.482;2023-04-26T01:44:37;101181.66;;;5.11;71.36
53932;BME280;39844;52.496;13.482;2023-04-26T01:47:03;101185.06;;;5.09;71.95
53932;BME280;39844;52.496;13.482;2023-04-26T01:49:28;101185.06;;;5.07;72.18
53932;BME280;39844;52.496;13.482;2023-04-26T01:51:54;101185.84;;;5.05;72.02
53932;BME280;39844;52.496;13.482;2023-04-26T01:54:19;101186.69;;;5.04;72.59
53932;BME280;39844;52.496;13.482;2023-04-26T01:56:44;101184.09;;;5.04;73.22
53932;BME280;39844;52.496;13.482;2023-04-26T01:59:10;101189.25;;;5.02;73.33
53932;BME280;39844;52.496;13.482;2023-04-26T02:01:35;101193.53;;;5.00;73.08
53932;BME280;39844;52.496;13.482;2023-04-26T02:04:00;101188.34;;;5.00;74.20
53932;BME280;39844;52.496;13.482;2023-04-26T02:06:25;101184.78;;;4.98;74.11
53932;BME280;39844;52.496;13.482;2023-04-26T02:08:51;101194.28;;;4.96;72.82
53932;BME280;39844;52.496;13.482;2023-04-26T02:11:16;101185.53;;;4.93;73.12
53932;BME280;39844;52.496;13.482;2023-04-26T02:13:42;101182.88;;;4.91;73.97
53932;BME280;39844;52.496;13.482;2023-04-26T02:16:07;101181.16;;;4.90;73.50
53932;BME280;39844;52.496;13.482;2023-04-26T02:18:32;101181.00;;;4.86;73.05
53932;BME280;39844;52.496;13.482;2023-04-26T02:20:58;101182.75;;;4.85;74.14
53932;BME280;39844;52.496;13.482;2023-04-26T02:23:23;101181.00;;;4.86;75.34
53932;BME280;39844;52.496;13.482;2023-04-26T02:25:48;101182.69;;;4.84;75.56
53932;BME280;39844;52.496;13.482;2023-04-26T02:28:14;101186.16;;;4.83;74.99
53932;BME280;39844;52.496;13.482;2023-04-26T02:30:39;101175.59;;;4.78;74.40
53932;BME280;39844;52.496;13.482;2023-04-26T02:33:05;101182.47;;;4.76;75.95
53932;BME280;39844;52.496;13.482;2023-04-26T02:35:30;101187.66;;;4.75;74.84
53932;BME280;39844;52.496;13.482;2023-04-26T02:37:55;101177.19;;;4.73;75.53
53932;BME280;39844;52.496;13.482;2023-04-26T02:40:21;101185.78;;;4.71;75.47
53932;BME280;39844;52.496;13.482;2023-04-26T02:42:47;101178.78;;;4.68;75.63
53932;BME280;39844;52.496;13.482;2023-04-26T02:45:12;101176.13;;;4.65;75.32
53932;BME280;39844;52.496;13.482;2023-04-26T02:47:38;101177.84;;;4.65;76.60
53932;BME280;39844;52.496;13.482;2023-04-26T02:50:10;101183.06;;;4.65;76.31
53932;BME280;39844;52.496;13.482;2023-04-26T02:52:36;101181.28;;;4.64;76.63
53932;BME280;39844;52.496;13.482;2023-04-26T02:55:05;101177.78;;;4.63;76.43
53932;BME280;39844;52.496;13.482;2023-04-26T02:57:31;101183.00;;;4.63;77.70
53932;BME280;39844;52.496;13.482;2023-04-26T02:59:56;101192.47;;;4.61;76.25
53932;BME280;39844;52.496;13.482;2023-04-26T03:02:22;101181.97;;;4.58;76.30
53932;BME280;39844;52.496;13.482;2023-04-26T03:04:47;101178.47;;;4.56;76.37
53932;BME280;39844;52.496;13.482;2023-04-26T03:07:13;101179.28;;;4.55;76.53
53932;BME280;39844;52.496;13.482;2023-04-26T03:09:38;101180.19;;;4.56;77.62
53932;BME280;39844;52.496;13.482;2023-04-26T03:12:07;101188.88;;;4.56;77.40
53932;BME280;39844;52.496;13.482;2023-04-26T03:14:33;101193.97;;;4.53;78.45
53932;BME280;39844;52.496;13.482;2023-04-26T03:16:59;101188.63;;;4.47;77.65
53932;BME280;39844;52.496;13.482;2023-04-26T03:19:25;101189.44;;;4.46;77.82
53932;BME280;39844;52.496;13.482;2023-04-26T03:21:50;101184.25;;;4.46;78.71
53932;BME280;39844;52.496;13.482;2023-04-26T03:24:16;101188.63;;;4.47;79.49
53932;BME280;39844;52.496;13.482;2023-04-26T03:26:41;101182.47;;;4.45;79.95
53932;BME280;39844;52.496;13.482;2023-04-26T03:29:06;101185.88;;;4.42;78.67
53932;BME280;39844;52.496;13.482;2023-04-26T03:31:31;101194.53;;;4.41;79.17
53932;BME280;39844;52.496;13.482;2023-04-26T03:33:57;101198.00;;;4.42;79.41
53932;BME280;39844;52.496;13.482;2023-04-26T03:36:22;101197.00;;;4.37;79.26
53932;BME280;39844;52.496;13.482;2023-04-26T03:38:47;101202.19;;;4.37;79.53
53932;BME280;39844;52.496;13.482;2023-04-26T03:41:13;101203.84;;;4.35;80.36
53932;BME280;39844;52.496;13.482;2023-04-26T03:43:38;101203.78;;;4.32;79.17
53932;BME280;39844;52.496;13.482;2023-04-26T03:46:03;101208.88;;;4.29;79.95
53932;BME280;39844;52.496;13.482;2023-04-26T03:48:29;101192.31;;;4.25;78.64
53932;BME280;39844;52.496;13.482;2023-04-26T03:50:54;101199.19;;;4.23;79.50
53932;BME280;39844;52.496;13.482;2023-04-26T03:53:19;101204.41;;;4.25;80.70
53932;BME280;39844;52.496;13.482;2023-04-26T03:55:45;101213.97;;;4.24;80.80
53932;BME280;39844;52.496;13.482;2023-04-26T03:58:10;101204.38;;;4.23;80.52
53932;BME280;39844;52.496;13.482;2023-04-26T04:00:39;101208.69;;;4.23;80.33
53932;BME280;39844;52.496;13.482;2023-04-26T04:03:07;101213.00;;;4.22;79.78
53932;BME280;39844;52.496;13.482;2023-04-26T04:05:33;101210.41;;;4.22;80.18
53932;BME280;39844;52.496;13.482;2023-04-26T04:07:58;101221.66;;;4.21;79.99
53932;BME280;39844;52.496;13.482;2023-04-26T04:10:24;101213.84;;;4.21;80.37
53932;BME280;39844;52.496;13.482;2023-04-26T04:12:50;101215.66;;;4.24;81.41
53932;BME280;39844;52.496;13.482;2023-04-26T04:15:17;101213.91;;;4.23;80.67
53932;BME280;39844;52.496;13.482;2023-04-26T04:17:42;101214.78;;;4.23;80.32
53932;BME280;39844;52.496;13.482;2023-04-26T04:20:08;101219.94;;;4.22;80.39
53932;BME280;39844;52.496;13.482;2023-04-26T04:22:33;101216.50;;;4.23;81.58
53932;BME280;39844;52.496;13.482;2023-04-26T04:24:58;101219.09;;;4.23;80.20
53932;BME280;39844;52.496;13.482;2023-04-26T04:27:24;101217.25;;;4.19;79.24
53932;BME280;39844;52.496;13.482;2023-04-26T04:29:49;101225.13;;;4.22;80.31
53932;BME280;39844;52.496;13.482;2023-04-26T04:32:15;101220.78;;;4.21;79.45
53932;BME280;39844;52.496;13.482;2023-04-26T04:34:40;101220.88;;;4.24;80.64
53932;BME280;39844;52.496;13.482;2023-04-26T04:37:05;101226.16;;;4.27;80.40
53932;BME280;39844;52.496;13.482;2023-04-26T04:39:30;101223.63;;;4.30;80.37
53932;BME280;39844;52.496;13.482;2023-04-26T04:41:56;101222.84;;;4.32;80.40
53932;BME280;39844;52.496;13.482;2023-04-26T04:44:21;101228.91;;;4.33;80.08
53932;BME280;39844;52.496;13.482;2023-04-26T04:46:46;101232.38;;;4.32;78.92
53932;BME280;39844;52.496;13.482;2023-04-26T04:49:12;101238.47;;;4.34;79.13
53932;BME280;39844;52.496;13.482;2023-04-26T04:51:38;101233.28;;;4.34;78.79
53932;BME280;39844;52.496;13.482;2023-04-26T04:54:14;101236.84;;;4.37;79.34
53932;BME280;39844;52.496;13.482;2023-04-26T04:56:40;101238.63;;;4.40;79.10
53932;BME280;39844;52.496;13.482;2023-04-26T04:59:06;101249.09;;;4.41;78.43
53932;BME280;39844;52.496;13.482;2023-04-26T05:01:32;101242.22;;;4.43;78.59
53932;BME280;39844;52.496;13.482;2023-04-26T05:03:58;101249.22;;;4.46;78.48
53932;BME280;39844;52.496;13.482;2023-04-26T05:06:23;101259.75;;;4.51;78.69
53932;BME280;39844;52.496;13.482;2023-04-26T05:08:48;101252.84;;;4.51;78.28
53932;BME280;39844;52.496;13.482;2023-04-26T05:11:14;101258.13;;;4.54;78.37
53932;BME280;39844;52.496;13.482;2023-04-26T05:13:39;101256.53;;;4.59;79.08
53932;BME280;39844;52.496;13.482;2023-04-26T05:16:04;101257.44;;;4.60;77.36
53932;BME280;39844;52.496;13.482;2023-04-26T05:18:30;101258.34;;;4.62;77.75
53932;BME280;39844;52.496;13.482;2023-04-26T05:20:56;101262.75;;;4.64;77.80
53932;BME280;39844;52.496;13.482;2023-04-26T05:23:21;101261.94;;;4.65;77.02
53932;BME280;39844;52.496;13.482;2023-04-26T05:25:47;101261.16;;;4.69;76.96
53932;BME280;39844;52.496;13.482;2023-04-26T05:28:12;101275.94;;;4.70;77.20
53932;BME280;39844;52.496;13.482;2023-04-26T05:30:37;101268.97;;;4.69;76.09
53932;BME280;39844;52.496;13.482;2023-04-26T05:33:02;101270.81;;;4.73;77.66
53932;BME280;39844;52.496;13.482;2023-04-26T05:35:28;101276.09;;;4.76;76.58
53932;BME280;39844;52.496;13.482;2023-04-26T05:37:53;101268.38;;;4.79;76.03
53932;BME280;39844;52.496;13.482;2023-04-26T05:40:18;101279.78;;;4.84;76.81
53932;BME280;39844;52.496;13.482;2023-04-26T05:42:44;101276.50;;;4.90;76.36
53932;BME280;39844;52.496;13.482;2023-04-26T05:45:09;101287.00;;;4.94;76.70
53932;BME280;39844;52.496;13.482;2023-04-26T05:47:35;101289.72;;;4.99;75.39
53932;BME280;39844;52.496;13.482;2023-04-26T05:50:00;101286.34;;;5.01;75.79
53932;BME280;39844;52.496;13.482;2023-04-26T05:52:25;101283.81;;;5.04;76.55
53932;BME280;39844;52.496;13.482;2023-04-26T05:54:50;101284.00;;;5.10;75.93
53932;BME280;39844;52.496;13.482;2023-04-26T05:57:16;101282.31;;;5.13;75.01
53932;BME280;39844;52.496;13.482;2023-04-26T05:59:41;101287.69;;;5.19;75.38
53932;BME280;39844;52.496;13.482;2023-04-26T06:02:06;101278.22;;;5.22;74.51
53932;BME280;39844;52.496;13.482;2023-04-26T06:04:32;101292.16;;;5.24;73.64
53932;BME280;39844;52.496;13.482;2023-04-26T06:06:57;101293.03;;;5.25;74.36
53932;BME280;39844;52.496;13.482;2023-04-26T06:09:22;101291.34;;;5.27;73.68
53932;BME280;39844;52.496;13.482;2023-04-26T06:11:47;101291.53;;;5.33;74.51
53932;BME280;39844;52.496;13.482;2023-04-26T06:14:13;101287.34;;;5.39;74.15
53932;BME280;39844;52.496;13.482;2023-04-26T06:16:38;101296.13;;;5.43;72.82
53932;BME280;39844;52.496;13.482;2023-04-26T06:19:03;101295.44;;;5.50;73.74
53932;BME280;39844;52.496;13.482;2023-04-26T06:21:29;101303.34;;;5.54;73.62
53932;BME280;39844;52.496;13.482;2023-04-26T06:23:56;101294.72;;;5.55;72.09
53932;BME280;39844;52.496;13.482;2023-04-26T06:26:21;101292.31;;;5.63;72.78
53932;BME280;39844;52.496;13.482;2023-04-26T06:28:46;101304.72;;;5.73;73.51
53932;BME280;39844;52.496;13.482;2023-04-26T06:31:12;101301.22;;;5.72;71.90
53932;BME280;39844;52.496;13.482;2023-04-26T06:33:37;101294.28;;;5.73;72.19
53932;BME280;39844;52.496;13.482;2023-04-26T06:36:02;101297.88;;;5.78;70.98
53932;BME280;39844;52.496;13.482;2023-04-26T06:38:28;101306.69;;;5.82;70.75
53932;BME280;39844;52.496;13.482;2023-04-26T06:40:53;101297.22;;;5.85;70.66
53932;BME280;39844;52.496;13.482;2023-04-26T06:43:18;101303.47;;;5.92;70.74
53932;BME280;39844;52.496;13.482;2023-04-26T06:45:44;101309.69;;;5.97;70.65
53932;BME280;39844;52.496;13.482;2023-04-26T06:48:09;101300.28;;;6.03;69.95
53932;BME280;39844;52.496;13.482;2023-04-26T06:50:37;101310.75;;;6.05;69.08
53932;BME280;39844;52.496;13.482;2023-04-26T06:53:03;101312.56;;;6.09;68.99
53932;BME280;39844;52.496;13.482;2023-04-26T06:55:28;101309.22;;;6.14;69.09
53932;BME280;39844;52.496;13.482;2023-04-26T06:57:53;101299.69;;;6.15;69.24
53932;BME280;39844;52.496;13.482;2023-04-26T07:00:19;101305.91;;;6.21;69.63
53932;BME280;39844;52.496;13.482;2023-04-26T07:02:44;101317.41;;;6.29;69.24
53932;BME280;39844;52.496;13.482;2023-04-26T07:05:09;101303.50;;;6.30;67.50
53932;BME280;39844;52.496;13.482;2023-04-26T07:07:35;101311.44;;;6.35;66.93
53932;BME280;39844;52.496;13.482;2023-04-26T07:10:00;101305.44;;;6.39;67.91
53932;BME280;39844;52.496;13.482;2023-04-26T07:12:25;101310.72;;;6.41;67.29
53932;BME280;39844;52.496;13.482;2023-04-26T07:14:50;101310.75;;;6.44;66.70
53932;BME280;39844;52.496;13.482;2023-04-26T07:17:16;101308.28;;;6.50;66.38
53932;BME280;39844;52.496;13.482;2023-04-26T07:19:41;101302.28;;;6.54;66.68
53932;BME280;39844;52.496;13.482;2023-04-26T07:22:06;101313.69;;;6.57;66.37
53932;BME280;39844;52.496;13.482;2023-04-26T07:24:32;101310.22;;;6.58;66.80
53932;BME280;39844;52.496;13.482;2023-04-26T07:26:57;101316.28;;;6.57;65.94
53932;BME280;39844;52.496;13.482;2023-04-26T07:29:22;101319.06;;;6.65;65.82
53932;BME280;39844;52.496;13.482;2023-04-26T07:31:48;101307.81;;;6.67;66.55
53932;BME280;39844;52.496;13.482;2023-04-26T07:34:13;101313.19;;;6.76;66.78
53932;BME280;39844;52.496;13.482;2023-04-26T07:36:39;101318.47;;;6.79;63.78
53932;BME280;39844;52.496;13.482;2023-04-26T07:39:04;101311.56;;;6.81;64.91
53932;BME280;39844;52.496;13.482;2023-04-26T07:41:30;101319.59;;;6.89;63.46
53932;BME280;39844;52.496;13.482;2023-04-26T07:43:55;101314.59;;;7.01;64.16
53932;BME280;39844;52.496;13.482;2023-04-26T07:46:20;101319.88;;;7.04;62.51
53932;BME280;39844;52.496;13.482;2023-04-26T07:48:46;101323.53;;;7.14;62.41
53932;BME280;39844;52.496;13.482;2023-04-26T07:51:11;101328.03;;;7.21;62.67
53932;BME280;39844;52.496;13.482;2023-04-26T07:53:38;101334.31;;;7.30;61.47
53932;BME280;39844;52.496;13.482;2023-04-26T07:56:04;101321.38;;;7.38;60.92
53932;BME280;39844;52.496;13.482;2023-04-26T07:58:30;101332.72;;;7.38;60.43
53932;BME280;39844;52.496;13.482;2023-04-26T08:00:55;101326.53;;;7.35;61.07
53932;BME280;39844;52.496;13.482;2023-04-26T08:03:20;101325.78;;;7.40;60.90
53932;BME280;39844;52.496;13.482;2023-04-26T08:05:45;101320.69;;;7.48;60.39
53932;BME280;39844;52.496;13.482;2023-04-26T08:08:11;101324.41;;;7.60;60.67
53932;BME280;39844;52.496;13.482;2023-04-26T08:10:39;101325.50;;;7.73;60.31
53932;BME280;39844;52.496;13.482;2023-04-26T08:13:04;101321.34;;;7.83;59.95
53932;BME280;39844;52.496;13.482;2023-04-26T08:15:30;101335.34;;;7.88;60.01
53932;BME280;39844;52.496;13.482;2023-04-26T08:17:55;101331.78;;;7.83;59.09
53932;BME280;39844;52.496;13.482;2023-04-26T08:20:20;101326.44;;;7.77;58.95
53932;BME280;39844;52.496;13.482;2023-04-26T08:22:45;101339.38;;;7.71;59.61
53932;BME280;39844;52.496;13.482;2023-04-26T08:25:11;101329.63;;;7.60;59.29
53932;BME280;39844;52.496;13.482;2023-04-26T08:27:36;101333.88;;;7.54;59.93
53932;BME280;39844;52.496;13.482;2023-04-26T08:30:02;101337.47;;;7.60;61.69
53932;BME280;39844;52.496;13.482;2023-04-26T08:32:28;101328.03;;;7.67;61.37
53932;BME280;39844;52.496;13.482;2023-04-26T08:34:53;101337.72;;;7.74;59.15
53932;BME280;39844;52.496;13.482;2023-04-26T08:37:18;101334.34;;;7.80;59.33
53932;BME280;39844;52.496;13.482;2023-04-26T08:39:43;101337.13;;;7.90;58.27
53932;BME280;39844;52.496;13.482;2023-04-26T08:42:14;101329.44;;;8.01;57.64
53932;BME280;39844;52.496;13.482;2023-04-26T08:44:44;101337.34;;;8.04;56.29
53932;BME280;39844;52.496;13.482;2023-04-26T08:47:13;101336.50;;;8.05;56.06
53932;BME280;39844;52.496;13.482;2023-04-26T08:49:44;101350.41;;;8.02;57.83
53932;BME280;39844;52.496;13.482;2023-04-26T08:52:11;101355.31;;;7.83;59.22
53932;BME280;39844;52.496;13.482;2023-04-26T08:54:38;101354.75;;;7.52;62.72
53932;BME280;39844;52.496;13.482;2023-04-26T08:57:04;101354.31;;;7.30;65.31
53932;BME280;39844;52.496;13.482;2023-04-26T08:59:31;101350.63;;;7.20;65.33
53932;BME280;39844;52.496;13.482;2023-04-26T09:01:57;101355.09;;;7.24;67.85
53932;BME280;39844;52.496;13.482;2023-04-26T09:04:23;101356.97;;;7.31;65.23
53932;BME280;39844;52.496;13.482;2023-04-26T09:06:51;101338.91;;;7.45;66.01
53932;BME280;39844;52.496;13.482;2023-04-26T09:09:18;101344.59;;;7.69;65.38
53932;BME280;39844;52.496;13.482;2023-04-26T09:11:57;101345.81;;;7.88;61.76
53932;BME280;39844;52.496;13.482;2023-04-26T09:14:23;101338.09;;;7.95;59.90
53932;BME280;39844;52.496;13.482;2023-04-26T09:16:49;101344.22;;;7.99;59.42
53932;BME280;39844;52.496;13.482;2023-04-26T09:19:14;101337.34;;;8.04;59.62
53932;BME280;39844;52.496;13.482;2023-04-26T09:21:45;101341.06;;;8.18;59.80
53932;BME280;39844;52.496;13.482;2023-04-26T09:24:11;101339.56;;;8.31;59.48
53932;BME280;39844;52.496;13.482;2023-04-26T09:26:37;101339.72;;;8.41;59.93
53932;BME280;39844;52.496;13.482;2023-04-26T09:29:18;101341.47;;;8.42;57.08
53932;BME280;39844;52.496;13.482;2023-04-26T09:31:48;101340.47;;;8.34;56.20
53932;BME280;39844;52.496;13.482;2023-04-26T09:34:14;101337.19;;;8.47;57.58
53932;BME280;39844;52.496;13.482;2023-04-26T09:36:54;101334.03;;;8.72;57.39
53932;BME280;39844;52.496;13.482;2023-04-26T09:41:54;101336.97;;;8.97;55.09
53932;BME280;39844;52.496;13.482;2023-04-26T09:44:23;101327.41;;;8.99;55.54
53932;BME280;39844;52.496;13.482;2023-04-26T09:49:32;101335.16;;;8.93;54.84
53932;BME280;39844;52.496;13.482;2023-04-26T09:52:04;101333.44;;;8.93;55.92
53932;BME280;39844;52.496;13.482;2023-04-26T09:57:07;101337.22;;;9.16;53.69
53932;BME280;39844;52.496;13.482;2023-04-26T09:59:46;101339.81;;;9.15;52.69
53932;BME280;39844;52.496;13.482;2023-04-26T10:02:22;101333.75;;;9.19;53.82
53932;BME280;39844;52.496;13.482;2023-04-26T10:04:50;101329.47;;;9.25;53.03
53932;BME280;39844;52.496;13.482;2023-04-26T10:07:18;101335.59;;;9.29;51.94
53932;BME280;39844;52.496;13.482;2023-04-26T10:09:44;101328.59;;;9.25;50.00
53932;BME280;39844;52.496;13.482;2023-04-26T10:12:11;101325.16;;;9.33;52.15
53932;BME280;39844;52.496;13.482;2023-04-26T10:14:37;101333.00;;;9.29;50.78
53932;BME280;39844;52.496;13.482;2023-04-26T10:17:03;101329.47;;;9.28;52.87
53932;BME280;39844;52.496;13.482;2023-04-26T10:19:30;101341.84;;;9.40;53.08
53932;BME280;39844;52.496;13.482;2023-04-26T10:22:00;101341.84;;;9.41;50.95
53932;BME280;39844;52.496;13.482;2023-04-26T10:24:28;101342.75;;;9.43;51.13
53932;BME280;39844;52.496;13.482;2023-04-26T10:26:54;101342.75;;;9.42;50.58
53932;BME280;39844;52.496;13.482;2023-04-26T10:29:20;101341.09;;;9.50;50.48
53932;BME280;39844;52.496;13.482;2023-04-26T10:34:28;101341.97;;;9.50;48.58
53932;BME280;39844;52.496;13.482;2023-04-26T10:37:11;101343.59;;;9.39;48.86
53932;BME280;39844;52.496;13.482;2023-04-26T10:39:44;101341.66;;;9.22;47.91
53932;BME280;39844;52.496;13.482;2023-04-26T10:44:44;101347.41;;;8.94;50.19
53932;BME280;39844;52.496;13.482;2023-04-26T10:50:06;101347.00;;;8.63;51.82
53932;BME280;39844;52.496;13.482;2023-04-26T10:52:33;101356.47;;;8.54;52.15
53932;BME280;39844;52.496;13.482;2023-04-26T10:54:59;101354.75;;;8.57;55.20
53932;BME280;39844;52.496;13.482;2023-04-26T11:00:16;101356.84;;;8.81;53.61
53932;BME280;39844;52.496;13.482;2023-04-26T11:05:47;101342.66;;;9.33;53.02
53932;BME280;39844;52.496;13.482;2023-04-26T11:08:16;101345.59;;;9.65;50.89
53932;BME280;39844;52.496;13.482;2023-04-26T11:10:42;101343.81;;;9.62;49.91
53932;BME280;39844;52.496;13.482;2023-04-26T11:13:07;101337.66;;;9.59;48.92
53932;BME280;39844;52.496;13.482;2023-04-26T11:15:33;101348.13;;;9.57;49.04
53932;BME280;39844;52.496;13.482;2023-04-26T11:18:03;101347.22;;;9.52;49.33
53932;BME280;39844;52.496;13.482;2023-04-26T11:20:32;101353.25;;;9.45;49.10
53932;BME280;39844;52.496;13.482;2023-04-26T11:22:58;101353.22;;;9.42;48.53
53932;BME280;39844;52.496;13.482;2023-04-26T11:25:27;101347.91;;;9.36;47.93
53932;BME280;39844;52.496;13.482;2023-04-26T11:28:00;101349.78;;;9.49;48.37
53932;BME280;39844;52.496;13.482;2023-04-26T11:30:27;101346.41;;;9.58;48.00
53932;BME280;39844;52.496;13.482;2023-04-26T11:32:53;101364.00;;;9.72;47.37
53932;BME280;39844;52.496;13.482;2023-04-26T11:35:21;101365.84;;;9.81;47.32
53932;BME280;39844;52.496;13.482;2023-04-26T11:37:46;101353.69;;;9.90;46.06
53932;BME280;39844;52.496;13.482;2023-04-26T11:40:11;101357.34;;;10.07;46.82
53932;BME280;39844;52.496;13.482;2023-04-26T11:42:39;101346.09;;;10.16;46.11
53932;BME280;39844;52.496;13.482;2023-04-26T11:45:05;101346.13;;;10.21;44.99
53932;BME280;39844;52.496;13.482;2023-04-26T11:47:32;101355.59;;;10.09;45.03
53932;BME280;39844;52.496;13.482;2023-04-26T11:49:58;101347.66;;;9.99;46.28
53932;BME280;39844;52.496;13.482;2023-04-26T11:52:23;101364.22;;;9.95;46.65
53932;BME280;39844;52.496;13.482;2023-04-26T11:54:49;101361.50;;;9.83;46.58
53932;BME280;39844;52.496;13.482;2023-04-26T11:57:17;101358.69;;;9.66;46.26
53932;BME280;39844;52.496;13.482;2023-04-26T11:59:43;101354.22;;;9.53;46.48
53932;BME280;39844;52.496;13.482;2023-04-26T12:02:09;101360.25;;;9.44;48.02
53932;BME280;39844;52.496;13.482;2023-04-26T12:04:34;101359.31;;;9.41;47.09
53932;BME280;39844;52.496;13.482;2023-04-26T12:07:04;101362.78;;;9.35;47.76
53932;BME280;39844;52.496;13.482;2023-04-26T12:09:30;101367.25;;;9.47;47.84
53932;BME280;39844;52.496;13.482;2023-04-26T12:12:03;101363.97;;;9.68;47.98
53932;BME280;39844;52.496;13.482;2023-04-26T12:14:36;101363.28;;;9.84;46.46
53932;BME280;39844;52.496;13.482;2023-04-26T12:17:03;101366.03;;;10.00;44.34
53932;BME280;39844;52.496;13.482;2023-04-26T12:19:32;101359.28;;;10.30;45.28
53932;BME280;39844;52.496;13.482;2023-04-26T12:21:58;101352.66;;;10.89;44.26
53932;BME280;39844;52.496;13.482;2023-04-26T12:24:25;101342.25;;;11.16;43.65
53932;BME280;39844;52.496;13.482;2023-04-26T12:26:52;101360.75;;;11.47;41.69
53932;BME280;39844;52.496;13.482;2023-04-26T12:29:17;101351.16;;;11.59;42.81
53932;BME280;39844;52.496;13.482;2023-04-26T12:31:43;101356.34;;;11.39;42.60
53932;BME280;39844;52.496;13.482;2023-04-26T12:34:08;101366.72;;;10.97;43.18
53932;BME280;39844;52.496;13.482;2023-04-26T12:36:34;101362.19;;;10.67;44.86
53932;BME280;39844;52.496;13.482;2023-04-26T12:38:59;101357.69;;;10.47;45.24
53932;BME280;39844;52.496;13.482;2023-04-26T12:41:24;101355.78;;;10.28;45.41
53932;BME280;39844;52.496;13.482;2023-04-26T12:43:49;101361.00;;;10.22;47.18
53932;BME280;39844;52.496;13.482;2023-04-26T12:46:15;101368.84;;;10.19;46.46
53932;BME280;39844;52.496;13.482;2023-04-26T12:48:40;101357.28;;;9.98;47.25
53932;BME280;39844;52.496;13.482;2023-04-26T12:51:06;101360.72;;;9.94;47.70
53932;BME280;39844;52.496;13.482;2023-04-26T12:53:31;101368.63;;;9.97;47.89
53932;BME280;39844;52.496;13.482;2023-04-26T12:55:56;101361.63;;;9.99;46.63
53932;BME280;39844;52.496;13.482;2023-04-26T12:58:21;101362.56;;;10.04;46.94
53932;BME280;39844;52.496;13.482;2023-04-26T13:00:47;101361.00;;;10.22;47.82
53932;BME280;39844;52.496;13.482;2023-04-26T13:03:12;101371.59;;;10.37;47.40
53932;BME280;39844;52.496;13.482;2023-04-26T13:05:40;101361.28;;;10.64;46.86